^^
Paulen-Weather Station Historical Data
Daily Summary for February 24, 2022 Units:  Metric    English   Both
Daily Weekly Monthly Yearly Custom
  High: Low: Average:
Temperature: 7 °C 2 °C 4.2 °C
Dew Point: 6 °C 0 °C 2.1 °C
Humidity: 94% 78% 86%
Wind Speed: 58km/h 0km/h 15.8km/h
Wind Gust: 42km/h - -
Wind- - WNW
Pressure: 998.17 hPa 994.24 hPa -
Precipitation: 2.59 mm    
Historical Graphs
 
 
Tabular Data for February 24, 2022
Time Temperature Dew Point Pressure Wind Wind Speed Wind Gust Humidity Rainfall Rate (Hourly) solar
00:04 7 °C 6 °C 996.04 hPa N 47 km/h 37 km/h 93% 0.41 mm 0 W/m2
00:09 7 °C 6 °C 995.97 hPa N 53 km/h 41 km/h 93% 0.61 mm 0 W/m2
00:14 7 °C 6 °C 995.94 hPa N 45 km/h 33 km/h 93% 0.61 mm 0 W/m2
00:19 7 °C 6 °C 995.94 hPa N 51 km/h 42 km/h 93% 0.61 mm 0 W/m2
00:24 7 °C 6 °C 995.9 hPa N 49 km/h 40 km/h 92% 0.61 mm 0 W/m2
00:29 7 °C 6 °C 995.87 hPa N 53 km/h 42 km/h 92% 0.61 mm 0 W/m2
00:34 7 °C 6 °C 995.67 hPa N 56 km/h 39 km/h 91% 0.41 mm 0 W/m2
00:39 7 °C 6 °C 995.6 hPa N 50 km/h 41 km/h 91% 0.41 mm 0 W/m2
00:44 7 °C 6 °C 995.63 hPa N 53 km/h 41 km/h 92% 0.61 mm 0 W/m2
00:49 7 °C 6 °C 995.4 hPa N 56 km/h 42 km/h 92% 0.61 mm 0 W/m2
00:54 7 °C 6 °C 995.43 hPa N 58 km/h 42 km/h 91% 0.61 mm 0 W/m2
00:59 7 °C 6 °C 995.53 hPa NNW 52 km/h 42 km/h 91% 0.41 mm 0 W/m2
01:04 7 °C 6 °C 995.77 hPa NNW 48 km/h 42 km/h 92% 0.41 mm 0 W/m2
01:09 6 °C 5 °C 995.73 hPa NW 29 km/h 16 km/h 91% 0.41 mm 0 W/m2
01:14 6 °C 5 °C 996.17 hPa WNW 36 km/h 22 km/h 92% 0.41 mm 0 W/m2
01:19 5 °C 4 °C 996.28 hPa WNW 29 km/h 16 km/h 92% 0.41 mm 0 W/m2
01:24 5 °C 4 °C 996.38 hPa WNW 22 km/h 14 km/h 92% 0.41 mm 0 W/m2
01:29 5 °C 4 °C 996.44 hPa WNW 23 km/h 15 km/h 93% 0.41 mm 0 W/m2
01:34 5 °C 4 °C 996.55 hPa WNW 17 km/h 10 km/h 93% 0.61 mm 0 W/m2
01:39 5 °C 4 °C 996.55 hPa WNW 12 km/h 8 km/h 94% 0.61 mm 0 W/m2
01:44 5 °C 4 °C 996.51 hPa WSW 13 km/h 7 km/h 94% 0.79 mm 0 W/m2
01:49 5 °C 4 °C 996.55 hPa WNW 14 km/h 6 km/h 94% 0.61 mm 0 W/m2
01:54 5 °C 4 °C 996.82 hPa W 18 km/h 14 km/h 94% 0.61 mm 0 W/m2
01:59 5 °C 4 °C 996.99 hPa WNW 19 km/h 12 km/h 94% 0.61 mm 0 W/m2
02:04 5 °C 4 °C 997.26 hPa WNW 18 km/h 12 km/h 94% 0.61 mm 0 W/m2
02:09 4 °C 3 °C 997.56 hPa WNW 20 km/h 14 km/h 94% 0.61 mm 0 W/m2
02:14 4 °C 3 °C 997.73 hPa WNW 23 km/h 18 km/h 92% 0.61 mm 0 W/m2
02:19 4 °C 3 °C 997.87 hPa WNW 27 km/h 16 km/h 91% 0.61 mm 0 W/m2
02:24 4 °C 3 °C 997.93 hPa WNW 16 km/h 11 km/h 91% 0.61 mm 0 W/m2
02:29 4 °C 3 °C 997.93 hPa WNW 15 km/h 12 km/h 91% 0.61 mm 0 W/m2
02:34 4 °C 2 °C 998.14 hPa WNW 17 km/h 13 km/h 91% 0.41 mm 0 W/m2
02:39 4 °C 2 °C 998.17 hPa WNW 20 km/h 14 km/h 90% 0.41 mm 0 W/m2
02:44 4 °C 2 °C 998.17 hPa NW 13 km/h 9 km/h 90% 0.41 mm 0 W/m2
02:49 3 °C 2 °C 998.17 hPa WNW 11 km/h 9 km/h 91% 0.2 mm 0 W/m2
02:54 3 °C 2 °C 998.1 hPa WNW 13 km/h 11 km/h 91% 0.2 mm 0 W/m2
02:59 3 °C 2 °C 997.97 hPa WNW 12 km/h 9 km/h 91% 0.2 mm 0 W/m2
03:04 3 °C 2 °C 997.66 hPa W 12 km/h 9 km/h 91% 0.2 mm 0 W/m2
03:09 3 °C 2 °C 997.63 hPa W 12 km/h 12 km/h 91% 0.2 mm 0 W/m2
03:14 3 °C 2 °C 997.56 hPa W 13 km/h 8 km/h 91% 0.2 mm 0 W/m2
03:19 3 °C 2 °C 997.46 hPa W 14 km/h 12 km/h 91% 0.2 mm 0 W/m2
03:24 3 °C 2 °C 997.46 hPa WNW 11 km/h 10 km/h 92% 0 mm 0 W/m2
03:29 3 °C 2 °C 997.36 hPa WNW 17 km/h 15 km/h 92% 0 mm 0 W/m2
03:34 4 °C 2 °C 997.22 hPa W 15 km/h 14 km/h 92% 0 mm 0 W/m2
03:39 4 °C 3 °C 997.12 hPa WNW 16 km/h 11 km/h 92% 0 mm 0 W/m2
03:44 4 °C 3 °C 997.02 hPa SE 16 km/h 11 km/h 91% 0 mm 0 W/m2
03:49 4 °C 3 °C 996.95 hPa NNW 22 km/h 17 km/h 91% 0 mm 0 W/m2
03:54 4 °C 3 °C 997.05 hPa NW 21 km/h 16 km/h 90% 0 mm 0 W/m2
03:59 4 °C 3 °C 997.16 hPa NW 20 km/h 18 km/h 90% 0 mm 0 W/m2
04:04 4 °C 3 °C 997.09 hPa WNW 18 km/h 13 km/h 90% 0 mm 0 W/m2
04:09 4 °C 3 °C 996.99 hPa NW 19 km/h 13 km/h 90% 0 mm 0 W/m2
04:14 4 °C 3 °C 996.95 hPa NW 16 km/h 16 km/h 90% 0 mm 0 W/m2
04:19 4 °C 3 °C 997.09 hPa W 18 km/h 14 km/h 91% 0 mm 0 W/m2
04:24 4 °C 3 °C 997.05 hPa NW 19 km/h 12 km/h 91% 0 mm 0 W/m2
04:29 4 °C 3 °C 996.99 hPa NW 20 km/h 18 km/h 91% 0 mm 0 W/m2
04:34 5 °C 3 °C 996.89 hPa WNW 24 km/h 17 km/h 91% 0 mm 0 W/m2
04:39 5 °C 3 °C 996.72 hPa NW 29 km/h 23 km/h 90% 0 mm 0 W/m2
04:44 5 °C 3 °C 996.65 hPa NNW 34 km/h 26 km/h 90% 0 mm 0 W/m2
04:49 5 °C 3 °C 996.65 hPa NNW 28 km/h 24 km/h 89% 0 mm 0 W/m2
04:54 5 °C 3 °C 996.65 hPa NNW 32 km/h 25 km/h 89% 0 mm 0 W/m2
04:59 5 °C 3 °C 996.61 hPa NNW 35 km/h 26 km/h 88% 0 mm 0 W/m2
05:04 5 °C 3 °C 996.61 hPa NNW 28 km/h 24 km/h 88% 0 mm 0 W/m2
05:09 5 °C 3 °C 996.61 hPa NNW 33 km/h 24 km/h 88% 0 mm 0 W/m2
05:14 5 °C 3 °C 996.55 hPa NW 33 km/h 25 km/h 87% 0 mm 0 W/m2
05:19 5 °C 3 °C 996.55 hPa NNW 35 km/h 28 km/h 86% 0 mm 0 W/m2
05:24 5 °C 3 °C 996.55 hPa NNW 28 km/h 23 km/h 86% 0 mm 0 W/m2
05:29 5 °C 3 °C 996.55 hPa NW 36 km/h 26 km/h 86% 0 mm 0 W/m2
05:34 5 °C 3 °C 996.58 hPa NNW 32 km/h 24 km/h 85% 0 mm 0 W/m2
05:39 5 °C 3 °C 996.51 hPa WNW 32 km/h 25 km/h 85% 0 mm 0 W/m2
05:44 5 °C 3 °C 996.51 hPa NNW 34 km/h 29 km/h 85% 0 mm 0 W/m2
05:49 5 °C 3 °C 996.51 hPa NNW 32 km/h 26 km/h 85% 0 mm 0 W/m2
05:54 5 °C 3 °C 996.44 hPa NNW 33 km/h 26 km/h 84% 0 mm 0 W/m2
05:59 6 °C 3 °C 996.38 hPa NNW 39 km/h 30 km/h 83% 0 mm 0 W/m2
06:04 6 °C 3 °C 996.44 hPa NNW 36 km/h 24 km/h 83% 0 mm 0 W/m2
06:09 6 °C 3 °C 996.65 hPa NW 24 km/h 19 km/h 83% 0 mm 0 W/m2
06:14 5 °C 3 °C 996.65 hPa NNW 29 km/h 23 km/h 83% 0 mm 0 W/m2
06:19 5 °C 3 °C 996.65 hPa WNW 20 km/h 12 km/h 84% 0 mm 0 W/m2
06:24 5 °C 3 °C 996.55 hPa WNW 15 km/h 17 km/h 85% 0 mm 0 W/m2
06:29 5 °C 3 °C 996.61 hPa NNW 29 km/h 24 km/h 85% 0 mm 0 W/m2
06:34 5 °C 3 °C 996.78 hPa NNW 37 km/h 24 km/h 84% 0 mm 0 W/m2
06:39 5 °C 3 °C 996.82 hPa WNW 24 km/h 16 km/h 85% 0 mm 0 W/m2
06:44 5 °C 3 °C 996.78 hPa NW 19 km/h 15 km/h 87% 0 mm 0 W/m2
06:49 5 °C 3 °C 996.92 hPa NW 24 km/h 15 km/h 88% 0 mm 0 W/m2
06:54 5 °C 3 °C 996.99 hPa W 23 km/h 14 km/h 88% 0 mm 0 W/m2
06:59 5 °C 3 °C 996.99 hPa NW 23 km/h 18 km/h 89% 0 mm 0 W/m2
07:04 5 °C 3 °C 996.92 hPa WNW 17 km/h 20 km/h 89% 0 mm 0 W/m2
07:09 5 °C 3 °C 996.95 hPa WNW 21 km/h 15 km/h 89% 0 mm 0 W/m2
07:14 5 °C 3 °C 996.92 hPa NW 19 km/h 14 km/h 89% 0 mm 0 W/m2
07:19 5 °C 3 °C 996.75 hPa WNW 19 km/h 13 km/h 89% 0.2 mm 0 W/m2
07:24 5 °C 3 °C 996.72 hPa NW 21 km/h 17 km/h 89% 0.2 mm 0 W/m2
07:29 5 °C 3 °C 996.75 hPa WNW 23 km/h 18 km/h 88% 0.2 mm 0 W/m2
07:34 5 °C 3 °C 996.89 hPa NW 21 km/h 13 km/h 88% 0.2 mm 0 W/m2
07:39 5 °C 3 °C 996.85 hPa WNW 20 km/h 13 km/h 88% 0.2 mm 5 W/m2
07:44 5 °C 3 °C 996.82 hPa W 19 km/h 12 km/h 88% 0.2 mm 5 W/m2
07:49 5 °C 3 °C 996.85 hPa WNW 18 km/h 11 km/h 88% 0.2 mm 7 W/m2
07:54 5 °C 3 °C 996.82 hPa W 16 km/h 10 km/h 88% 0.2 mm 12 W/m2
07:59 5 °C 3 °C 996.85 hPa WNW 11 km/h 10 km/h 87% 0.2 mm 18 W/m2
08:04 5 °C 3 °C 996.85 hPa W 10 km/h 7 km/h 87% 0.2 mm 21 W/m2
08:09 5 °C 3 °C 996.89 hPa WSW 9 km/h 6 km/h 87% 0.2 mm 21 W/m2
08:14 5 °C 3 °C 996.92 hPa W 16 km/h 13 km/h 88% 0.2 mm 18 W/m2
08:19 5 °C 3 °C 996.92 hPa NW 25 km/h 23 km/h 89% 0.2 mm 18 W/m2
08:24 5 °C 3 °C 997.05 hPa WNW 18 km/h 13 km/h 90% 0 mm 14 W/m2
08:29 5 °C 3 °C 997.05 hPa NW 24 km/h 19 km/h 90% 0 mm 9 W/m2
08:34 5 °C 3 °C 996.95 hPa NW 31 km/h 21 km/h 90% 0 mm 7 W/m2
08:39 4 °C 3 °C 996.89 hPa WNW 23 km/h 17 km/h 90% 0 mm 9 W/m2
08:44 4 °C 3 °C 996.99 hPa N 27 km/h 20 km/h 90% 0 mm 12 W/m2
08:49 4 °C 3 °C 997.02 hPa NW 24 km/h 22 km/h 90% 0 mm 23 W/m2
08:54 4 °C 3 °C 997.02 hPa NW 26 km/h 17 km/h 90% 0 mm 33 W/m2
08:59 5 °C 3 °C 996.99 hPa NNW 17 km/h 13 km/h 90% 0 mm 44 W/m2
09:04 5 °C 3 °C 997.02 hPa NW 23 km/h 19 km/h 90% 0 mm 44 W/m2
09:09 5 °C 3 °C 996.99 hPa WNW 21 km/h 19 km/h 89% 0 mm 49 W/m2
09:14 5 °C 3 °C 996.99 hPa SW 23 km/h 20 km/h 88% 0 mm 51 W/m2
09:19 5 °C 3 °C 996.95 hPa NNW 25 km/h 21 km/h 87% 0 mm 47 W/m2
09:24 5 °C 2 °C 996.85 hPa NNW 25 km/h 18 km/h 85% 0 mm 35 W/m2
09:29 4 °C 1 °C 996.92 hPa W 12 km/h 12 km/h 81% 0 mm 35 W/m2
09:34 4 °C 1 °C 996.92 hPa WNW 14 km/h 12 km/h 81% 0 mm 58 W/m2
09:39 4 °C 2 °C 996.92 hPa W 13 km/h 9 km/h 82% 0 mm 84 W/m2
09:44 4 °C 2 °C 996.92 hPa W 11 km/h 6 km/h 83% 0 mm 83 W/m2
09:49 4 °C 2 °C 997.19 hPa W 10 km/h 8 km/h 84% 0 mm 30 W/m2
09:54 4 °C 2 °C 997.33 hPa WNW 16 km/h 12 km/h 84% 0 mm 26 W/m2
09:59 4 °C 1 °C 997.36 hPa WNW 17 km/h 14 km/h 85% 0.2 mm 49 W/m2
10:04 3 °C 1 °C 997.29 hPa WNW 11 km/h 12 km/h 86% 0.2 mm 54 W/m2
10:09 3 °C 1 °C 997.29 hPa WNW 7 km/h 4 km/h 87% 0.41 mm 95 W/m2
10:14 3 °C 1 °C 997.12 hPa W 5 km/h 1 km/h 88% 0.41 mm 134 W/m2
10:19 3 °C 2 °C 997.09 hPa WNW 4 km/h 3 km/h 89% 0.41 mm 162 W/m2
10:24 3 °C 2 °C 997.09 hPa WNW 4 km/h 3 km/h 90% 0.61 mm 148 W/m2
10:29 3 °C 2 °C 997.02 hPa W 7 km/h 3 km/h 90% 0.61 mm 141 W/m2
10:34 4 °C 2 °C 996.95 hPa W 3 km/h 2 km/h 91% 0.61 mm 132 W/m2
10:39 4 °C 2 °C 996.95 hPa WSW 7 km/h 6 km/h 91% 0.61 mm 128 W/m2
10:44 4 °C 3 °C 996.78 hPa WSW 5 km/h 3 km/h 91% 0.61 mm 134 W/m2
10:49 4 °C 3 °C 996.72 hPa WSW 5 km/h 2 km/h 91% 0.61 mm 144 W/m2
10:54 4 °C 3 °C 996.65 hPa W 8 km/h 8 km/h 90% 0.61 mm 156 W/m2
10:59 4 °C 3 °C 996.51 hPa W 15 km/h 9 km/h 89% 0.61 mm 176 W/m2
11:04 5 °C 3 °C 996.51 hPa W 16 km/h 11 km/h 86% 0.61 mm 158 W/m2
11:09 5 °C 3 °C 996.61 hPa W 12 km/h 7 km/h 85% 0.61 mm 148 W/m2
11:14 5 °C 3 °C 996.68 hPa W 13 km/h 6 km/h 85% 0.61 mm 162 W/m2
11:19 5 °C 3 °C 996.68 hPa WNW 14 km/h 11 km/h 84% 0.61 mm 162 W/m2
11:24 5 °C 3 °C 996.58 hPa WNW 19 km/h 12 km/h 84% 0.61 mm 155 W/m2
11:29 5 °C 3 °C 996.61 hPa W 17 km/h 11 km/h 83% 0.41 mm 144 W/m2
11:34 5 °C 2 °C 996.51 hPa WNW 16 km/h 12 km/h 82% 0.41 mm 169 W/m2
11:39 5 °C 2 °C 996.44 hPa WNW 19 km/h 11 km/h 82% 0.41 mm 178 W/m2
11:44 5 °C 2 °C 996.41 hPa WNW 15 km/h 11 km/h 82% 0.41 mm 172 W/m2
11:49 5 °C 3 °C 996.51 hPa WNW 15 km/h 9 km/h 82% 0.41 mm 163 W/m2
11:54 5 °C 2 °C 996.51 hPa WSW 17 km/h 12 km/h 81% 0.41 mm 146 W/m2
11:59 5 °C 2 °C 996.48 hPa WNW 14 km/h 9 km/h 81% 0.2 mm 134 W/m2
12:04 5 °C 2 °C 996.38 hPa WNW 18 km/h 10 km/h 80% 0.2 mm 132 W/m2
12:09 5 °C 2 °C 996.31 hPa W 17 km/h 10 km/h 79% 0.2 mm 132 W/m2
12:14 5 °C 2 °C 996.31 hPa WNW 16 km/h 8 km/h 80% 0.2 mm 132 W/m2
12:19 5 °C 2 °C 996.17 hPa WNW 18 km/h 15 km/h 80% 0 mm 127 W/m2
12:24 5 °C 2 °C 996.04 hPa W 18 km/h 14 km/h 80% 0 mm 113 W/m2
12:29 5 °C 2 °C 996.04 hPa W 17 km/h 11 km/h 80% 0 mm 141 W/m2
12:34 5 °C 2 °C 996.11 hPa W 19 km/h 11 km/h 80% 0 mm 141 W/m2
12:39 5 °C 2 °C 996.14 hPa NW 19 km/h 13 km/h 80% 0 mm 135 W/m2
12:44 5 °C 2 °C 996.04 hPa WNW 16 km/h 12 km/h 80% 0 mm 139 W/m2
12:49 5 °C 2 °C 996.07 hPa W 24 km/h 16 km/h 80% 0 mm 130 W/m2
12:54 5 °C 2 °C 996 hPa WNW 19 km/h 14 km/h 79% 0 mm 120 W/m2
12:59 5 °C 2 °C 995.94 hPa NW 16 km/h 12 km/h 79% 0 mm 127 W/m2
13:04 5 °C 2 °C 995.87 hPa NW 16 km/h 12 km/h 79% 0 mm 151 W/m2
13:09 5 °C 2 °C 995.77 hPa WNW 17 km/h 13 km/h 79% 0 mm 153 W/m2
13:14 5 °C 2 °C 995.6 hPa W 13 km/h 9 km/h 79% 0 mm 142 W/m2
13:19 5 °C 2 °C 995.6 hPa W 17 km/h 12 km/h 79% 0 mm 153 W/m2
13:24 5 °C 2 °C 995.46 hPa W 12 km/h 12 km/h 80% 0 mm 162 W/m2
13:29 5 °C 2 °C 995.36 hPa WNW 18 km/h 8 km/h 80% 0 mm 158 W/m2
13:34 5 °C 2 °C 995.29 hPa NW 15 km/h 11 km/h 80% 0 mm 149 W/m2
13:39 5 °C 2 °C 995.29 hPa NW 17 km/h 13 km/h 80% 0 mm 148 W/m2
13:44 5 °C 2 °C 995.33 hPa W 18 km/h 13 km/h 80% 0 mm 141 W/m2
13:49 5 °C 2 °C 995.16 hPa NW 19 km/h 14 km/h 80% 0 mm 153 W/m2
13:54 5 °C 2 °C 994.95 hPa W 20 km/h 17 km/h 81% 0 mm 153 W/m2
13:59 5 °C 3 °C 994.95 hPa NW 21 km/h 17 km/h 82% 0 mm 141 W/m2
14:04 5 °C 2 °C 994.99 hPa NW 19 km/h 14 km/h 81% 0 mm 125 W/m2
14:09 5 °C 2 °C 995.02 hPa WNW 13 km/h 13 km/h 81% 0 mm 107 W/m2
14:14 5 °C 2 °C 995.06 hPa WNW 16 km/h 14 km/h 81% 0 mm 44 W/m2
14:19 5 °C 2 °C 994.92 hPa WNW 25 km/h 23 km/h 80% 0 mm 46 W/m2
14:24 5 °C 1 °C 994.95 hPa WNW 17 km/h 17 km/h 80% 0 mm 91 W/m2
14:29 4 °C 1 °C 995.06 hPa W 17 km/h 13 km/h 80% 0.2 mm 120 W/m2
14:34 4 °C 2 °C 995.06 hPa W 14 km/h 8 km/h 82% 0.2 mm 121 W/m2
14:39 4 °C 2 °C 994.92 hPa WNW 15 km/h 10 km/h 81% 0.2 mm 118 W/m2
14:44 5 °C 1 °C 994.82 hPa W 14 km/h 10 km/h 80% 0.2 mm 120 W/m2
14:49 5 °C 2 °C 994.75 hPa WNW 21 km/h 11 km/h 79% 0.2 mm 121 W/m2
14:54 5 °C 2 °C 994.72 hPa W 19 km/h 13 km/h 78% 0.2 mm 144 W/m2
14:59 5 °C 2 °C 994.62 hPa WNW 15 km/h 8 km/h 79% 0.2 mm 148 W/m2
15:04 5 °C 2 °C 994.65 hPa W 16 km/h 10 km/h 78% 0.2 mm 162 W/m2
15:09 5 °C 1 °C 994.62 hPa W 19 km/h 13 km/h 78% 0.2 mm 167 W/m2
15:14 5 °C 2 °C 994.48 hPa W 16 km/h 14 km/h 78% 0.2 mm 148 W/m2
15:19 5 °C 2 °C 994.45 hPa WNW 17 km/h 11 km/h 78% 0.2 mm 192 W/m2
15:24 5 °C 2 °C 994.45 hPa WNW 14 km/h 9 km/h 78% 0.2 mm 149 W/m2
15:29 5 °C 2 °C 994.35 hPa W 12 km/h 9 km/h 79% 0.2 mm 102 W/m2
15:34 5 °C 2 °C 994.38 hPa W 15 km/h 9 km/h 80% 0 mm 90 W/m2
15:39 5 °C 2 °C 994.35 hPa W 13 km/h 7 km/h 80% 0 mm 139 W/m2
15:44 5 °C 2 °C 994.38 hPa WSW 15 km/h 8 km/h 80% 0 mm 207 W/m2
15:49 5 °C 2 °C 994.31 hPa W 10 km/h 7 km/h 81% 0 mm 225 W/m2
15:54 5 °C 2 °C 994.24 hPa WSW 9 km/h 5 km/h 81% 0 mm 197 W/m2
15:59 5 °C 2 °C 994.28 hPa WSW 7 km/h 9 km/h 81% 0 mm 118 W/m2
16:04 5 °C 2 °C 994.31 hPa W 11 km/h 7 km/h 81% 0 mm 88 W/m2
16:09 5 °C 2 °C 994.28 hPa WNW 14 km/h 11 km/h 81% 0 mm 83 W/m2
16:14 5 °C 2 °C 994.28 hPa WNW 15 km/h 8 km/h 81% 0 mm 63 W/m2
16:19 5 °C 2 °C 994.31 hPa W 6 km/h 4 km/h 81% 0 mm 56 W/m2
16:24 5 °C 2 °C 994.31 hPa WNW 7 km/h 6 km/h 81% 0 mm 53 W/m2
16:29 5 °C 2 °C 994.28 hPa W 7 km/h 10 km/h 81% 0 mm 53 W/m2
16:34 5 °C 2 °C 994.41 hPa W 7 km/h 5 km/h 81% 0 mm 56 W/m2
16:39 5 °C 2 °C 994.45 hPa WSW 9 km/h 5 km/h 81% 0 mm 93 W/m2
16:44 5 °C 2 °C 994.41 hPa W 14 km/h 11 km/h 80% 0 mm 67 W/m2
16:49 4 °C 1 °C 994.45 hPa WSW 9 km/h 7 km/h 80% 0 mm 63 W/m2
16:54 4 °C 1 °C 994.35 hPa W 15 km/h 11 km/h 80% 0 mm 54 W/m2
16:59 4 °C 1 °C 994.38 hPa WSW 14 km/h 13 km/h 82% 0 mm 37 W/m2
17:04 4 °C 1 °C 994.35 hPa NW 17 km/h 12 km/h 82% 0 mm 25 W/m2
17:09 4 °C 1 °C 994.35 hPa W 12 km/h 10 km/h 82% 0 mm 23 W/m2
17:14 4 °C 1 °C 994.38 hPa WNW 13 km/h 10 km/h 82% 0 mm 19 W/m2
17:19 4 °C 1 °C 994.41 hPa WSW 12 km/h 8 km/h 83% 0 mm 18 W/m2
17:24 4 °C 1 °C 994.41 hPa W 10 km/h 9 km/h 83% 0 mm 14 W/m2
17:29 4 °C 1 °C 994.38 hPa WSW 8 km/h 8 km/h 83% 0 mm 12 W/m2
17:34 4 °C 1 °C 994.45 hPa W 9 km/h 6 km/h 83% 0 mm 11 W/m2
17:39 4 °C 1 °C 994.41 hPa W 8 km/h 6 km/h 82% 0 mm 9 W/m2
17:44 4 °C 1 °C 994.41 hPa WSW 3 km/h 2 km/h 82% 0 mm 5 W/m2
17:49 4 °C 1 °C 994.45 hPa SW 3 km/h 1 km/h 83% 0 mm 0 W/m2
17:54 4 °C 1 °C 994.48 hPa WSW 3 km/h 2 km/h 83% 0 mm 0 W/m2
17:59 4 °C 2 °C 994.55 hPa W 5 km/h 5 km/h 84% 0 mm 0 W/m2
18:04 4 °C 2 °C 994.58 hPa W 9 km/h 14 km/h 84% 0 mm 0 W/m2
18:09 4 °C 1 °C 994.55 hPa W 16 km/h 14 km/h 83% 0 mm 0 W/m2
18:14 4 °C 1 °C 994.55 hPa WNW 8 km/h 7 km/h 82% 0 mm 0 W/m2
18:19 4 °C 1 °C 994.62 hPa W 6 km/h 5 km/h 82% 0 mm 0 W/m2
18:24 4 °C 1 °C 994.62 hPa W 11 km/h 7 km/h 83% 0 mm 0 W/m2
18:29 4 °C 1 °C 994.72 hPa WNW 9 km/h 5 km/h 83% 0 mm 0 W/m2
18:34 4 °C 1 °C 994.72 hPa NW 6 km/h 5 km/h 83% 0 mm 0 W/m2
18:39 4 °C 1 °C 994.85 hPa WNW 5 km/h 3 km/h 83% 0 mm 0 W/m2
18:44 4 °C 1 °C 994.85 hPa WNW 5 km/h 3 km/h 83% 0 mm 0 W/m2
18:49 3 °C 1 °C 994.89 hPa WNW 6 km/h 6 km/h 83% 0 mm 0 W/m2
18:54 3 °C 1 °C 994.92 hPa WNW 3 km/h 2 km/h 83% 0 mm 0 W/m2
18:59 3 °C 1 °C 994.92 hPa WNW 4 km/h 3 km/h 83% 0 mm 0 W/m2
19:04 3 °C 1 °C 994.92 hPa WNW 2 km/h 1 km/h 83% 0 mm 0 W/m2
19:09 3 °C 1 °C 994.92 hPa W 4 km/h 2 km/h 83% 0 mm 0 W/m2
19:14 3 °C 1 °C 994.92 hPa W 2 km/h   83% 0 mm 0 W/m2
19:19 3 °C 1 °C 994.95 hPa Calm     83% 0 mm 0 W/m2
19:24 3 °C 1 °C 994.92 hPa Calm     83% 0 mm 0 W/m2
19:29 3 °C 1 °C 994.95 hPa W 2 km/h   83% 0 mm 0 W/m2
19:34 3 °C 0 °C 994.95 hPa Calm     83% 0 mm 0 W/m2
19:39 3 °C 0 °C 994.99 hPa Calm     83% 0 mm 0 W/m2
19:44 3 °C 0 °C 995.02 hPa W 1 km/h   83% 0 mm 0 W/m2
19:49 3 °C 0 °C 994.99 hPa Calm     83% 0 mm 0 W/m2
19:54 3 °C 0 °C 994.99 hPa Calm     83% 0 mm 0 W/m2
19:59 3 °C 0 °C 995.02 hPa Calm     84% 0 mm 0 W/m2
20:04 3 °C 0 °C 995.06 hPa Calm     84% 0 mm 0 W/m2
20:09 3 °C 0 °C 995.09 hPa Calm     84% 0 mm 0 W/m2
20:14 3 °C 0 °C 995.16 hPa Calm     84% 0 mm 0 W/m2
20:19 3 °C 0 °C 995.16 hPa Calm     84% 0 mm 0 W/m2
20:24 3 °C 0 °C 995.16 hPa Calm     84% 0 mm 0 W/m2
20:29 3 °C 0 °C 995.09 hPa WSW 4 km/h 3 km/h 84% 0 mm 0 W/m2
20:34 3 °C 0 °C 995.09 hPa WSW 5 km/h 2 km/h 84% 0 mm 0 W/m2
20:39 3 °C 0 °C 995.06 hPa WSW 3 km/h 2 km/h 84% 0 mm 0 W/m2
20:44 3 °C 0 °C 995.09 hPa WSW 2 km/h 1 km/h 84% 0 mm 0 W/m2
20:49 2 °C 0 °C 995.06 hPa WSW 1 km/h 1 km/h 84% 0 mm 0 W/m2
20:54 2 °C 0 °C 995.09 hPa WSW 2 km/h 1 km/h 85% 0 mm 0 W/m2
20:59 2 °C 0 °C 995.09 hPa WSW 5 km/h 3 km/h 85% 0 mm 0 W/m2
21:04 2 °C 0 °C 995.09 hPa SW 4 km/h 3 km/h 86% 0 mm 0 W/m2
21:09 2 °C 0 °C 995.06 hPa SW 2 km/h 1 km/h 86% 0 mm 0 W/m2
21:14 2 °C 0 °C 995.02 hPa WSW 2 km/h 1 km/h 87% 0 mm 0 W/m2
21:19 2 °C 0 °C 994.95 hPa SW 5 km/h 3 km/h 87% 0 mm 0 W/m2
21:24 2 °C 0 °C 994.89 hPa SW 5 km/h 4 km/h 87% 0 mm 0 W/m2
21:29 2 °C 0 °C 994.89 hPa SW 3 km/h 4 km/h 88% 0 mm 0 W/m2
21:34 2 °C 0 °C 994.89 hPa SW 3 km/h 3 km/h 88% 0 mm 0 W/m2
21:39 2 °C 0 °C 994.85 hPa SW 4 km/h 2 km/h 88% 0 mm 0 W/m2
21:44 2 °C 0 °C 994.82 hPa SW 5 km/h 3 km/h 87% 0 mm 0 W/m2
21:49 2 °C 0 °C 994.82 hPa SW 3 km/h 2 km/h 87% 0 mm 0 W/m2
21:54 2 °C 0 °C 994.85 hPa SW 3 km/h 1 km/h 87% 0 mm 0 W/m2
21:59 2 °C 0 °C 994.89 hPa SW 3 km/h 1 km/h 87% 0 mm 0 W/m2
22:04 2 °C 0 °C 994.85 hPa SW 1 km/h   87% 0 mm 0 W/m2
22:09 2 °C 0 °C 994.82 hPa WSW 3 km/h 1 km/h 87% 0 mm 0 W/m2
22:14 2 °C 0 °C 994.89 hPa WSW 2 km/h 1 km/h 88% 0 mm 0 W/m2
22:19 2 °C 0 °C 995.02 hPa WSW 2 km/h 5 km/h 88% 0 mm 0 W/m2
22:24 2 °C 0 °C 995.09 hPa WNW 15 km/h 13 km/h 88% 0 mm 0 W/m2
22:29 2 °C 0 °C 994.89 hPa WNW 9 km/h 7 km/h 87% 0 mm 0 W/m2
22:34 2 °C 0 °C 994.99 hPa W 8 km/h 6 km/h 87% 0 mm 0 W/m2
22:39 2 °C 0 °C 995.06 hPa W 5 km/h 6 km/h 86% 0 mm 0 W/m2
22:44 2 °C 0 °C 995.06 hPa W 4 km/h 1 km/h 85% 0 mm 0 W/m2
22:49 2 °C 0 °C 995.06 hPa WSW 4 km/h 1 km/h 85% 0 mm 0 W/m2
22:54 2 °C 0 °C 995.06 hPa WSW 5 km/h 2 km/h 85% 0 mm 0 W/m2
22:59 2 °C 0 °C 995.06 hPa WSW 4 km/h 1 km/h 85% 0 mm 0 W/m2
23:04 2 °C 0 °C 995.06 hPa WSW 3 km/h 2 km/h 85% 0 mm 0 W/m2
23:09 2 °C 0 °C 995.06 hPa WSW 1 km/h   85% 0 mm 0 W/m2
23:14 2 °C 0 °C 995.06 hPa WSW 2 km/h   85% 0 mm 0 W/m2
23:19 2 °C 0 °C 995.02 hPa WSW 1 km/h   85% 0 mm 0 W/m2
23:24 3 °C 0 °C 995.06 hPa WSW 1 km/h   85% 0 mm 0 W/m2
23:29 3 °C 0 °C 995.06 hPa WSW 2 km/h 1 km/h 85% 0 mm 0 W/m2
23:34 3 °C 0 °C 995.06 hPa WSW 4 km/h 2 km/h 85% 0 mm 0 W/m2
23:39 3 °C 0 °C 995.02 hPa WSW 2 km/h 2 km/h 85% 0 mm 0 W/m2
23:44 3 °C 1 °C 995.12 hPa W 6 km/h 4 km/h 86% 0 mm 0 W/m2
23:49 3 °C 1 °C 995.26 hPa W 12 km/h 15 km/h 86% 0 mm 0 W/m2
23:54 3 °C 1 °C 995.4 hPa WNW 19 km/h 11 km/h 85% 0 mm 0 W/m2
23:59 3 °C 1 °C 995.4 hPa WNW 12 km/h 8 km/h 85% 0 mm 0 W/m2
Compliments of Weather Underground - 2 mb